Time;durP1;ratioP1;P1;durP2;ratioP2;P2;SDS_P1;SDS_P2;PMS_P1;PMS_P2;Temp;Humidity;BMP_temperature;BMP_pressure;BME280_temperature;BME280_humidity;BME280_pressure;Samples;Min_cycle;Max_cycle;Signal;HPM_P1;HPM_P2
2022/08/01 00:03:02;;;;;;;6.90;4.40;;;;;;;14.23;87.94;98375.94;433910;1267;109852;-39
2022/08/01 00:13:10;;;;;;;9.40;5.00;;;;;;;14.09;87.72;98368.10;434189;1266;108811;-39
2022/08/01 00:23:17;;;;;;;8.50;5.40;;;;;;;13.69;87.29;98367.55;434073;1266;97507;-39
2022/08/01 00:33:24;;;;;;;6.20;5.30;;;;;;;13.29;87.09;98367.24;433861;1266;111291;-41
2022/08/01 00:43:32;;;;;;;13.80;6.50;;;;;;;13.07;87.26;98362.42;434084;1267;108837;-40
2022/08/01 00:53:40;;;;;;;9.70;6.40;;;;;;;13.06;87.56;98376.48;434017;1267;97516;-39
2022/08/01 01:03:57;;;;;;;;;;;;;;;13.25;88.08;98367.49;434120;1268;108942;-39
2022/08/01 01:14:11;;;;;;;9.80;5.90;;;;;;;13.41;88.39;98371.96;434339;1258;98451;-40
2022/08/01 01:24:29;;;;;;;7.10;5.60;;;;;;;13.63;88.61;98370.54;433443;1269;111109;-39
2022/08/01 01:34:40;;;;;;;9.90;5.90;;;;;;;13.73;88.34;98368.59;433325;1270;108856;-39
2022/08/01 01:44:47;;;;;;;7.80;6.40;;;;;;;13.77;88.58;98367.88;433142;1270;97501;-38
2022/08/01 01:54:55;;;;;;;7.40;6.70;;;;;;;13.74;88.37;98366.69;433191;1269;107759;-40
2022/08/01 02:05:01;;;;;;;;;;;;;;;13.78;88.59;98358.27;433275;1269;97546;-39
2022/08/01 02:15:11;;;;;;;7.50;6.40;;;;;;;13.80;88.59;98353.28;433175;1270;110876;-39
2022/08/01 02:25:21;;;;;;;8.40;7.10;;;;;;;13.69;88.50;98344.52;433899;1270;108656;-39
2022/08/01 02:35:27;;;;;;;7.10;6.30;;;;;;;13.70;88.46;98343.85;433426;1269;96695;-40
2022/08/01 02:45:38;;;;;;;7.80;6.70;;;;;;;13.63;88.32;98341.25;433244;1270;108209;-40
2022/08/01 03:05:54;;;;;;;13.50;8.50;;;;;;;13.98;89.10;98353.69;432857;1269;110813;-40
2022/08/01 03:16:03;;;;;;;11.50;9.20;;;;;;;13.92;88.67;98343.98;433003;1270;108783;-40
2022/08/01 03:26:10;;;;;;;20.10;9.60;;;;;;;13.93;88.77;98342.02;433027;1270;96591;-40
2022/08/01 03:36:20;;;;;;;12.10;10.30;;;;;;;13.90;88.82;98335.46;433007;1269;108854;-40
2022/08/01 03:56:38;;;;;;;13.50;10.20;;;;;;;13.70;89.11;98349.86;433438;1270;111067;-39
2022/08/01 04:16:50;;;;;;;31.00;13.30;;;;;;;14.00;88.86;98366.88;433137;1269;96672;-40
2022/08/01 04:26:59;;;;;;;17.20;11.50;;;;;;;14.17;89.31;98368.20;433304;1269;109416;-39
2022/08/01 04:37:08;;;;;;;15.60;11.20;;;;;;;14.42;89.06;98367.13;433265;1270;97939;-40
2022/08/01 04:47:17;;;;;;;17.30;11.50;;;;;;;14.55;88.38;98365.98;433381;1270;111161;-40
2022/08/01 04:57:24;;;;;;;17.60;11.20;;;;;;;14.68;88.77;98373.67;432674;1269;108857;-39
2022/08/01 05:07:32;;;;;;;19.00;12.50;;;;;;;14.94;88.60;98370.12;433240;1270;98612;-39
2022/08/01 05:17:50;;;;;;;25.90;15.50;;;;;;;14.94;88.23;98379.16;433155;1270;106974;-40
2022/08/01 05:27:57;;;;;;;20.30;14.40;;;;;;;15.01;88.35;98380.88;432517;1270;633299;-39
2022/08/01 05:38:05;;;;;;;17.80;11.90;;;;;;;15.19;87.92;98373.82;433278;1269;111069;-39
2022/08/01 05:48:18;;;;;;;17.90;12.70;;;;;;;15.74;88.64;98362.55;433154;1270;109581;-40
2022/08/01 05:58:25;;;;;;;30.10;22.00;;;;;;;16.49;88.38;98365.00;433052;1270;97893;-40
2022/08/01 06:08:33;;;;;;;23.40;16.60;;;;;;;16.98;87.90;98375.27;433003;1270;111315;-39
2022/08/01 06:18:40;;;;;;;21.40;16.40;;;;;;;17.92;87.82;98377.82;433381;1270;108758;-41
2022/08/01 06:28:47;;;;;;;18.80;13.60;;;;;;;19.03;87.30;98382.53;432991;1269;96662;-41
2022/08/01 06:38:54;;;;;;;14.30;11.70;;;;;;;19.50;86.43;98384.65;432327;1270;110574;-40
2022/08/01 06:49:01;;;;;;;10.30;7.40;;;;;;;20.55;86.10;98377.50;433067;1270;109418;-40
2022/08/01 06:59:08;;;;;;;10.30;4.50;;;;;;;21.29;83.73;98372.17;432946;1268;97499;-39
2022/08/01 07:09:15;;;;;;;8.50;4.30;;;;;;;22.01;84.20;98374.19;433187;1270;111161;-39
2022/08/01 07:19:22;;;;;;;4.60;3.60;;;;;;;23.16;83.26;98374.44;433362;1270;108056;-39
2022/08/01 07:29:29;;;;;;;3.80;3.20;;;;;;;23.74;80.88;98371.02;433139;1270;107829;-39
2022/08/01 07:39:37;;;;;;;3.70;2.60;;;;;;;23.71;79.31;98369.48;433191;1269;97976;-39
2022/08/01 07:49:43;;;;;;;3.00;1.80;;;;;;;23.80;78.41;98372.12;433157;1269;110778;-40
2022/08/01 07:59:50;;;;;;;2.90;1.90;;;;;;;23.90;76.83;98369.47;433582;1270;109345;-40
2022/08/01 08:09:58;;;;;;;4.50;2.20;;;;;;;24.08;75.47;98370.95;433481;1270;97573;-39
2022/08/01 08:20:09;;;;;;;3.60;2.20;;;;;;;24.01;74.27;98372.83;433421;1269;97505;-43
2022/08/01 08:30:17;;;;;;;5.40;2.30;;;;;;;23.87;72.78;98376.73;433262;1270;110754;-39
2022/08/01 08:40:30;;;;;;;3.10;2.50;;;;;;;23.96;72.62;98379.94;433483;1270;109139;-39
2022/08/01 08:50:39;;;;;;;2.90;2.60;;;;;;;24.22;72.22;98386.52;433326;1269;108238;-40
2022/08/01 09:00:46;;;;;;;7.10;2.80;;;;;;;24.53;71.72;98387.77;433231;1270;97894;-40
2022/08/01 09:10:55;;;;;;;4.30;2.80;;;;;;;24.54;70.58;98397.13;432708;1269;111939;-39
2022/08/01 09:21:23;;;;;;;5.80;3.60;;;;;;;24.43;70.01;98407.29;433419;1270;108786;-39
2022/08/01 09:31:29;;;;;;;4.60;4.00;;;;;;;24.37;69.05;98407.29;433033;1270;108574;-40
2022/08/01 09:41:42;;;;;;;4.10;3.50;;;;;;;24.62;69.09;98403.69;433067;1270;97928;-41
2022/08/01 09:51:51;;;;;;;6.90;4.80;;;;;;;24.85;68.48;98402.57;433097;1270;110880;-41
2022/08/01 10:02:06;;;;;;;5.40;4.90;;;;;;;24.84;67.86;98405.55;432902;1270;108897;-42
2022/08/01 10:12:16;;;;;;;5.40;5.00;;;;;;;24.98;67.64;98406.55;433027;1270;107456;-40
2022/08/01 10:22:26;;;;;;;7.10;6.50;;;;;;;24.97;67.08;98407.16;433314;1269;98060;-40
2022/08/01 10:32:36;;;;;;;6.70;6.00;;;;;;;25.02;67.09;98406.88;433287;1270;111005;-40
2022/08/01 10:42:46;;;;;;;6.10;5.50;;;;;;;25.30;66.53;98396.70;433251;1270;109416;-41
2022/08/01 10:53:13;;;;;;;6.10;5.30;;;;;;;25.48;66.25;98391.09;432945;1270;108799;-41
2022/08/01 11:03:33;;;;;;;9.70;4.90;;;;;;;25.70;65.59;98386.14;432708;1269;97294;-41
2022/08/01 11:24:15;;;;;;;5.60;4.70;;;;;;;26.63;64.51;98377.85;432715;1269;108312;-41
2022/08/01 11:34:42;;;;;;;5.60;4.50;;;;;;;26.66;63.53;98378.41;432579;1270;97901;-41
2022/08/01 11:54:58;;;;;;;4.60;4.00;;;;;;;26.85;62.28;98369.24;432973;1269;108994;-43
2022/08/01 12:05:10;;;;;;;4.10;3.70;;;;;;;26.87;61.81;98374.70;432809;1270;109036;-42
2022/08/01 12:15:19;;;;;;;4.00;3.20;;;;;;;26.92;61.27;98369.03;432759;1270;97925;-41
2022/08/01 12:25:26;;;;;;;5.80;4.00;;;;;;;26.82;60.46;98366.90;433149;1269;111085;-40
2022/08/01 12:35:31;;;;;;;;;;;;;;;26.94;60.48;98362.83;432959;1270;111408;-40
2022/08/01 12:55:46;;;;;;;6.90;4.70;;;;;;;26.50;60.07;98361.66;432898;1270;110993;-41
2022/08/01 13:06:10;;;;;;;7.50;4.70;;;;;;;26.29;59.98;98365.66;432658;1269;108592;-41
2022/08/01 13:16:19;;;;;;;6.70;4.60;;;;;;;26.22;60.07;98363.39;433027;1269;97925;-40
2022/08/01 13:26:41;;;;;;;4.50;3.60;;;;;;;26.06;60.47;98362.34;433004;1269;109995;-41
2022/08/01 13:36:48;;;;;;;8.00;4.70;;;;;;;26.03;60.42;98355.66;432739;1269;108727;-41
2022/08/01 13:46:55;;;;;;;5.00;4.30;;;;;;;26.11;60.36;98354.98;432851;1270;97892;-40
2022/08/01 13:57:03;;;;;;;4.80;4.40;;;;;;;26.37;60.45;98356.61;432770;1269;98215;-40
2022/08/01 14:07:10;;;;;;;4.30;3.90;;;;;;;26.12;59.90;98359.20;432818;1270;108702;-40
2022/08/01 14:17:19;;;;;;;6.40;4.20;;;;;;;25.69;59.84;98361.11;433138;1270;108952;-40
2022/08/01 14:27:30;;;;;;;6.40;5.20;;;;;;;25.39;60.18;98372.32;432527;1270;108841;-41
2022/08/01 14:37:37;;;;;;;5.80;5.40;;;;;;;24.68;60.84;98384.93;432664;1269;98645;-41
2022/08/01 14:47:45;;;;;;;5.60;5.10;;;;;;;24.49;62.03;98380.71;432603;1270;111221;-40
2022/08/01 14:57:53;;;;;;;5.30;4.90;;;;;;;24.69;61.89;98378.23;432977;1270;108394;-40
2022/08/01 15:08:00;;;;;;;6.20;4.80;;;;;;;24.83;61.50;98374.51;432975;1269;97879;-40
2022/08/01 15:18:08;;;;;;;5.10;4.30;;;;;;;24.94;61.80;98380.42;433233;1267;111068;-41
2022/08/01 15:28:16;;;;;;;5.00;4.50;;;;;;;25.05;61.33;98379.92;433105;1270;108796;-41
2022/08/01 15:48:28;;;;;;;5.00;4.50;;;;;;;25.14;60.86;98380.73;433630;1270;97930;-40
2022/08/01 15:58:35;;;;;;;9.60;4.90;;;;;;;25.00;60.44;98388.33;433374;1270;110876;-40
2022/08/01 16:08:42;;;;;;;5.30;4.10;;;;;;;24.73;60.54;98389.63;433413;1270;108763;-40
2022/08/01 16:18:50;;;;;;;6.80;5.30;;;;;;;24.56;61.04;98389.95;433444;1270;98569;-40
2022/08/01 16:28:59;;;;;;;7.10;5.40;;;;;;;24.38;61.35;98389.23;433227;1270;97378;-41
2022/08/01 16:39:07;;;;;;;5.40;4.90;;;;;;;24.31;61.74;98396.46;433419;1270;111141;-41
2022/08/01 16:59:18;;;;;;;5.60;5.00;;;;;;;24.53;61.74;98384.02;433246;1269;97896;-40
2022/08/01 17:09:25;;;;;;;5.10;4.40;;;;;;;24.63;61.84;98385.36;433319;1269;98220;-40
2022/08/01 17:19:33;;;;;;;9.40;6.30;;;;;;;24.64;61.14;98393.83;432450;1269;111111;-40
2022/08/01 17:29:40;;;;;;;6.80;5.50;;;;;;;24.28;60.80;98410.35;433352;1270;410271;-39
2022/08/01 17:39:50;;;;;;;5.80;5.30;;;;;;;23.69;60.97;98422.41;433285;1268;109054;-39
2022/08/01 18:00:08;;;;;;;8.00;5.00;;;;;;;22.91;62.45;98445.96;433674;1270;111593;-39
2022/08/01 18:10:15;;;;;;;6.00;4.40;;;;;;;22.65;63.57;98456.50;433266;1269;109003;-40
2022/08/01 18:20:23;;;;;;;9.20;7.00;;;;;;;22.53;64.34;98468.64;433452;1270;97894;-40
2022/08/01 18:40:37;;;;;;;7.20;6.40;;;;;;;22.04;65.53;98457.98;433384;1270;109144;-41
2022/08/01 18:50:44;;;;;;;8.00;5.80;;;;;;;21.78;65.97;98469.95;433264;1270;97900;-39
2022/08/01 19:00:51;;;;;;;8.70;8.00;;;;;;;21.58;66.72;98490.80;433527;1270;111105;-40
2022/08/01 19:10:58;;;;;;;9.20;7.30;;;;;;;21.37;67.26;98499.40;433573;1269;108791;-40
2022/08/01 19:21:06;;;;;;;7.90;7.20;;;;;;;21.12;67.61;98514.00;433539;1269;97919;-40
2022/08/01 19:31:12;;;;;;;7.60;6.50;;;;;;;20.82;68.36;98531.15;433174;1270;111088;-40
2022/08/01 19:41:21;;;;;;;11.40;9.10;;;;;;;20.64;68.88;98530.77;433341;1269;108799;-40
2022/08/01 19:51:32;;;;;;;9.90;8.20;;;;;;;20.54;69.59;98535.49;433575;1269;97827;-41
2022/08/01 20:01:39;;;;;;;8.20;7.20;;;;;;;20.47;70.02;98547.89;432939;1270;108720;-40
2022/08/01 20:11:49;;;;;;;10.40;5.80;;;;;;;20.39;70.41;98553.77;433274;1269;97932;-40
2022/08/01 20:32:10;;;;;;;7.80;5.30;;;;;;;20.21;70.96;98555.44;432900;1269;108972;-40
2022/08/01 20:42:17;;;;;;;5.30;4.20;;;;;;;20.03;71.25;98563.56;433698;1269;97887;-40
2022/08/01 20:52:24;;;;;;;4.50;3.70;;;;;;;19.83;71.75;98565.65;432660;1269;109157;-43
2022/08/01 21:02:40;;;;;;;4.60;3.30;;;;;;;19.80;72.33;98566.92;433340;1270;97171;-40
2022/08/01 21:12:54;;;;;;;4.20;3.80;;;;;;;19.79;72.77;98569.41;433646;1269;111594;-39
2022/08/01 21:23:03;;;;;;;3.90;3.50;;;;;;;19.74;73.01;98562.84;433484;1269;108836;-41
2022/08/01 21:33:12;;;;;;;4.50;3.30;;;;;;;19.68;73.07;98570.34;433323;1270;97596;-40
2022/08/01 21:43:20;;;;;;;4.40;3.60;;;;;;;19.58;73.45;98578.14;433598;1269;107756;-40
2022/08/01 21:53:30;;;;;;;3.20;3.00;;;;;;;19.49;73.96;98575.98;433492;1269;96650;-40
2022/08/01 22:13:52;;;;;;;3.60;3.30;;;;;;;19.43;74.37;98583.09;433509;1270;108882;-40
2022/08/01 22:24:02;;;;;;;7.60;5.20;;;;;;;19.25;74.32;98583.20;433059;1270;96656;-41
2022/08/01 22:34:10;;;;;;;5.20;4.20;;;;;;;19.13;74.97;98571.28;433045;1270;108833;-40
2022/08/01 22:44:18;;;;;;;9.10;6.00;;;;;;;19.03;75.20;98572.33;432910;1270;98437;-41
2022/08/01 22:54:35;;;;;;;4.90;4.50;;;;;;;18.76;75.31;98584.57;433372;1269;111160;-41
2022/08/01 23:04:55;;;;;;;5.90;5.10;;;;;;;18.57;75.56;98586.02;433142;1270;108535;-40
2022/08/01 23:15:03;;;;;;;6.60;5.40;;;;;;;18.46;76.29;98591.36;433493;1269;97499;-39
2022/08/01 23:25:13;;;;;;;6.60;5.30;;;;;;;18.35;76.51;98589.80;433254;1269;108949;-40
2022/08/01 23:35:20;;;;;;;6.70;5.40;;;;;;;18.27;76.74;98596.17;433353;1270;97488;-40
2022/08/01 23:45:27;;;;;;;6.40;5.80;;;;;;;18.14;77.01;98595.11;432935;1270;110966;-40
2022/08/01 23:55:54;;;;;;;6.30;5.80;;;;;;;18.03;77.50;98594.77;433086;1269;108169;-41
